createdAt,value
2019-02-16T00:01:21.903Z,102237.55
2019-02-16T00:04:15.524Z,102233.58
2019-02-16T00:06:51.965Z,102231.16
2019-02-16T00:09:29.269Z,102235.08
2019-02-16T00:12:01.587Z,102223.23
2019-02-16T00:14:35.560Z,102226.18
2019-02-16T00:17:09.135Z,102224.53
2019-02-16T00:19:44.292Z,102221.45
2019-02-16T00:22:23.265Z,102218.84
2019-02-16T00:25:03.138Z,102213.62
2019-02-16T00:27:42.362Z,102210.19
2019-02-16T00:30:14.830Z,102213.28
2019-02-16T00:32:53.162Z,102205.80
2019-02-16T00:35:25.163Z,102206.06
2019-02-16T00:38:04.698Z,102205.95
2019-02-16T00:40:40.715Z,102201.91
2019-02-16T00:43:13.108Z,102196.37
2019-02-16T00:45:45.693Z,102195.27
2019-02-16T00:48:18.077Z,102192.31
2019-02-16T00:50:53.317Z,102181.81
2019-02-16T00:53:25.789Z,102181.41
2019-02-16T00:56:03.591Z,102179.20
2019-02-16T00:58:39.242Z,102170.15
2019-02-16T01:01:11.507Z,102175.29
2019-02-16T01:03:45.132Z,102175.58
2019-02-16T01:06:21.597Z,102173.00
2019-02-16T01:08:54.017Z,102170.13
2019-02-16T01:11:32.190Z,102169.37
2019-02-16T01:14:07.140Z,102166.20
2019-02-16T01:16:39.626Z,102160.34
2019-02-16T01:19:15.133Z,102159.64
2019-02-16T01:21:47.772Z,102155.14
2019-02-16T01:24:30.198Z,102153.91
2019-02-16T01:27:14.417Z,102148.80
2019-02-16T01:29:52.424Z,102147.02
2019-02-16T01:32:28.100Z,102145.86
2019-02-16T01:35:02.812Z,102140.23
2019-02-16T01:37:43.769Z,102144.27
2019-02-16T01:40:16.262Z,102141.12
2019-02-16T01:42:57.151Z,102140.50
2019-02-16T01:45:36.622Z,102136.11
2019-02-16T01:48:09.320Z,102136.96
2019-02-16T01:50:47.399Z,102133.50
2019-02-16T01:53:28.643Z,102131.87
2019-02-16T01:56:03.568Z,102128.89
2019-02-16T01:58:40.985Z,102127.48
2019-02-16T02:01:15.298Z,102120.34
2019-02-16T02:03:52.031Z,102118.14
2019-02-16T02:06:24.501Z,102118.55
2019-02-16T02:09:04.224Z,102118.14
2019-02-16T02:11:40.720Z,102117.66
2019-02-16T02:14:15.176Z,102108.50
2019-02-16T02:16:49.104Z,102109.17
2019-02-16T02:19:26.204Z,102108.63
2019-02-16T02:22:01.270Z,102115.14
2019-02-16T02:24:33.695Z,102109.17
2019-02-16T02:27:13.950Z,102109.80
2019-02-16T02:29:43.179Z,102112.44
2019-02-16T02:32:24.353Z,102111.14
2019-02-16T02:34:57.915Z,102115.60
2019-02-16T02:37:31.772Z,102111.63
2019-02-16T02:40:10.925Z,102107.95
2019-02-16T02:42:46.410Z,102109.45
2019-02-16T02:45:28.163Z,102103.64
2019-02-16T02:48:07.173Z,102099.34
2019-02-16T02:50:44.287Z,102090.45
2019-02-16T02:53:16.672Z,102091.80
2019-02-16T02:55:51.287Z,102083.23
2019-02-16T02:58:24.605Z,102082.48
2019-02-16T03:00:56.931Z,102082.55
2019-02-16T03:03:38.225Z,102087.05
2019-02-16T03:06:15.942Z,102085.41
2019-02-16T03:08:49.991Z,102086.30
2019-02-16T03:11:22.344Z,102083.20
2019-02-16T03:13:57.355Z,102080.39
2019-02-16T03:16:29.663Z,102080.83
2019-02-16T03:19:02.107Z,102081.10
2019-02-16T03:21:35.668Z,102073.63
2019-02-16T03:24:08.424Z,102077.13
2019-02-16T03:27:45.522Z,102078.98
2019-02-16T03:31:47.752Z,102080.14
2019-02-16T03:34:24.064Z,102073.07
2019-02-16T03:37:52.780Z,102073.03
2019-02-16T03:40:33.077Z,102071.59
2019-02-16T03:43:05.430Z,102066.30
2019-02-16T03:45:40.408Z,102064.11
2019-02-16T03:48:12.679Z,102062.73
2019-02-16T03:50:44.832Z,102061.92
2019-02-16T03:53:17.170Z,102065.08
2019-02-16T03:55:54.747Z,102061.17
2019-02-16T03:58:28.882Z,102065.75
2019-02-16T04:01:07.072Z,102064.00
2019-02-16T04:03:39.068Z,102069.66
2019-02-16T04:06:10.917Z,102060.13
2019-02-16T04:08:42.688Z,102060.55
2019-02-16T04:11:16.281Z,102056.70
2019-02-16T04:13:48.178Z,102051.80
2019-02-16T04:16:20.170Z,102049.67
2019-02-16T04:18:51.991Z,102052.14
2019-02-16T04:21:23.954Z,102045.48
2019-02-16T04:23:55.749Z,102039.69
2019-02-16T04:26:28.521Z,102043.86
2019-02-16T04:29:00.337Z,102040.09
2019-02-16T04:31:32.179Z,102035.63
2019-02-16T04:34:04.911Z,102035.04
2019-02-16T04:36:36.705Z,102030.44
2019-02-16T04:39:08.570Z,102025.53
2019-02-16T04:41:40.396Z,102026.69
2019-02-16T04:44:12.309Z,102030.52
2019-02-16T04:46:44.089Z,102027.44
2019-02-16T04:49:17.389Z,102030.34
2019-02-16T04:51:49.302Z,102030.67
2019-02-16T04:54:21.157Z,102025.12
2019-02-16T04:56:53.021Z,102023.20
2019-02-16T04:59:25.010Z,102017.52
2019-02-16T05:01:56.885Z,102023.61
2019-02-16T05:04:28.687Z,102017.25
2019-02-16T05:07:00.547Z,102018.33
2019-02-16T05:09:32.409Z,102016.69
2019-02-16T05:12:04.283Z,102015.94
2019-02-16T05:14:36.170Z,102013.75
2019-02-16T05:17:08.074Z,102008.13
2019-02-16T05:19:40.023Z,102012.03
2019-02-16T05:22:11.862Z,102009.50
2019-02-16T05:24:46.458Z,102007.38
2019-02-16T05:27:18.430Z,102001.88
2019-02-16T05:29:50.257Z,102003.18
2019-02-16T05:32:22.126Z,102000.02
2019-02-16T05:34:53.975Z,101993.06
2019-02-16T05:37:25.762Z,101996.08
2019-02-16T05:39:57.670Z,101986.55
2019-02-16T05:42:29.649Z,101989.27
2019-02-16T05:45:01.470Z,101989.57
2019-02-16T05:47:33.462Z,101992.21
2019-02-16T05:50:05.666Z,101986.19
2019-02-16T05:52:37.478Z,101985.02
2019-02-16T05:55:09.499Z,101981.94
2019-02-16T05:57:41.314Z,101979.75
2019-02-16T06:00:14.271Z,101982.91
2019-02-16T06:02:47.307Z,101985.98
2019-02-16T06:05:19.135Z,101977.55
2019-02-16T06:07:50.995Z,101975.09
2019-02-16T06:10:22.806Z,101982.02
2019-02-16T06:12:54.656Z,101982.73
2019-02-16T06:15:26.524Z,101983.77
2019-02-16T06:17:58.438Z,101983.06
2019-02-16T06:20:30.235Z,101981.97
2019-02-16T06:23:04.659Z,101979.44
2019-02-16T06:25:35.558Z,101976.18
2019-02-16T06:28:07.630Z,101983.77
2019-02-16T06:30:39.448Z,101983.97
2019-02-16T06:33:11.292Z,101988.19
2019-02-16T06:35:49.690Z,101991.86
2019-02-16T06:38:21.522Z,101989.80
2019-02-16T06:40:53.371Z,101985.30
2019-02-16T06:43:25.719Z,101989.52
2019-02-16T06:45:57.503Z,101983.95
2019-02-16T06:48:29.390Z,101988.10
2019-02-16T06:51:01.428Z,101990.09
2019-02-16T06:53:33.325Z,101994.51
2019-02-16T06:56:24.214Z,101999.98
2019-02-16T06:58:56.170Z,101996.72
2019-02-16T07:01:28.276Z,101997.33
2019-02-16T07:04:00.032Z,102004.77
2019-02-16T07:06:31.939Z,102010.95
2019-02-16T07:09:04.966Z,102012.86
2019-02-16T07:11:37.084Z,102018.38
2019-02-16T07:14:09.231Z,102012.84
2019-02-16T07:16:52.419Z,102013.70
2019-02-16T07:19:30.057Z,102004.30
2019-02-16T07:22:01.982Z,101999.02
2019-02-16T07:24:33.864Z,101996.06
2019-02-16T07:27:05.874Z,101995.78
2019-02-16T07:29:37.746Z,101985.16
2019-02-16T07:32:09.615Z,101984.83
2019-02-16T07:34:41.408Z,101982.98
2019-02-16T07:37:13.340Z,101985.09
2019-02-16T07:39:45.414Z,101980.62
2019-02-16T07:42:17.557Z,101982.13
2019-02-16T07:44:58.038Z,101979.95
2019-02-16T07:47:50.598Z,101978.14
2019-02-16T07:50:44.502Z,101985.19
2019-02-16T07:53:31.901Z,101986.11
2019-02-16T07:56:39.848Z,101985.83
2019-02-16T07:59:38.386Z,101985.41
2019-02-16T08:02:23.449Z,101984.47
2019-02-16T08:05:12.797Z,101990.59
2019-02-16T08:08:03.667Z,101988.05
2019-02-16T08:11:11.992Z,101991.66
2019-02-16T08:14:08.009Z,101992.98
2019-02-16T08:16:51.633Z,101991.59
2019-02-16T08:19:41.741Z,101992.89
2019-02-16T08:22:31.291Z,101990.27
2019-02-16T08:25:18.630Z,101989.27
2019-02-16T08:28:08.268Z,101982.78
2019-02-16T08:31:05.096Z,101983.64
2019-02-16T08:33:46.338Z,101983.96
2019-02-16T08:36:32.977Z,101981.62
2019-02-16T08:39:26.612Z,101976.17
2019-02-16T08:42:26.130Z,101970.47
2019-02-16T08:45:16.944Z,101965.27
2019-02-16T08:48:06.067Z,101966.69
2019-02-16T08:50:48.984Z,101963.70
2019-02-16T08:53:57.613Z,101962.97
2019-02-16T08:56:57.497Z,101962.02
2019-02-16T08:59:40.085Z,101950.94
2019-02-16T09:02:23.302Z,101956.27
2019-02-16T09:04:59.354Z,101959.55
2019-02-16T09:07:48.683Z,101951.38
2019-02-16T09:10:39.436Z,101953.22
2019-02-16T09:13:31.052Z,101951.70
2019-02-16T09:16:21.885Z,101955.62
2019-02-16T09:19:11.588Z,101951.39
2019-02-16T09:21:54.340Z,101949.73
2019-02-16T09:24:48.110Z,101953.89
2019-02-16T09:27:44.925Z,101952.23
2019-02-16T09:30:36.516Z,101944.14
2019-02-16T09:33:34.073Z,101933.81
2019-02-16T09:36:30.882Z,101927.67
2019-02-16T09:39:30.669Z,101923.03
2019-02-16T09:42:12.693Z,101920.53
2019-02-16T09:44:54.635Z,101919.25
2019-02-16T09:47:41.092Z,101919.71
2019-02-16T09:50:30.537Z,101913.23
2019-02-16T09:53:08.632Z,101915.42
2019-02-16T09:56:07.109Z,101914.20
2019-02-16T09:58:59.552Z,101913.74
2019-02-16T10:02:02.632Z,101907.49
2019-02-16T10:04:45.458Z,101902.63
2019-02-16T10:07:39.802Z,101903.12
2019-02-16T10:10:33.629Z,101905.67
2019-02-16T10:13:36.883Z,101905.26
2019-02-16T10:16:25.737Z,101899.86
2019-02-16T10:19:16.436Z,101893.59
2019-02-16T10:22:07.240Z,101898.13
2019-02-16T10:24:55.815Z,101897.52
2019-02-16T10:27:40.540Z,101894.91
2019-02-16T10:30:18.391Z,101893.59
2019-02-16T10:33:24.097Z,101887.34
2019-02-16T10:36:06.045Z,101890.93
2019-02-16T10:39:09.084Z,101885.53
2019-02-16T10:41:49.880Z,101885.72
2019-02-16T10:44:43.011Z,101888.41
2019-02-16T10:47:41.560Z,101885.14
2019-02-16T10:50:25.714Z,101887.35
2019-02-16T10:53:16.580Z,101885.00
2019-02-16T10:56:01.603Z,101882.40
2019-02-16T10:58:42.794Z,101874.80
2019-02-16T11:01:23.955Z,101879.83
2019-02-16T11:04:11.127Z,101870.63
2019-02-16T11:06:56.773Z,101868.92
2019-02-16T11:09:54.168Z,101862.16
2019-02-16T11:12:54.104Z,101864.34
2019-02-16T11:15:47.799Z,101860.27
2019-02-16T11:18:38.355Z,101863.41
2019-02-16T11:21:26.846Z,101863.40
2019-02-16T11:24:06.668Z,101866.41
2019-02-16T11:27:06.441Z,101854.95
2019-02-16T11:30:05.991Z,101859.80
2019-02-16T11:32:54.211Z,101852.34
2019-02-16T11:35:40.468Z,101848.19
2019-02-16T11:38:31.236Z,101846.47
2019-02-16T11:41:18.709Z,101840.86
2019-02-16T11:43:54.364Z,101841.52
2019-02-16T11:46:43.613Z,101838.17
2019-02-16T11:49:28.243Z,101836.56
2019-02-16T11:52:30.930Z,101832.55
2019-02-16T11:55:21.651Z,101828.41
2019-02-16T11:58:12.356Z,101835.73
2019-02-16T12:00:55.639Z,101832.36
2019-02-16T12:03:42.069Z,101833.98
2019-02-16T12:06:38.567Z,101818.46
2019-02-16T12:09:30.273Z,101829.77
2019-02-16T12:12:29.566Z,101827.41
2019-02-16T12:15:08.848Z,101818.34
2019-02-16T12:17:59.628Z,101814.98
2019-02-16T12:20:53.135Z,101814.91
2019-02-16T12:23:36.916Z,101803.98
2019-02-16T12:26:32.423Z,101801.15
2019-02-16T12:29:32.362Z,101800.73
2019-02-16T12:32:16.217Z,101798.77
2019-02-16T12:35:01.667Z,101793.56
2019-02-16T12:37:38.707Z,101783.80
2019-02-16T12:40:23.241Z,101783.47
2019-02-16T12:43:31.897Z,101779.21
2019-02-16T12:46:28.522Z,101775.73
2019-02-16T12:49:25.061Z,101778.12
2019-02-16T12:52:14.857Z,101774.08
2019-02-16T12:55:18.128Z,101766.43
2019-02-16T12:58:11.657Z,101764.88
2019-02-16T13:01:02.494Z,101762.84
2019-02-16T13:03:57.357Z,101763.42
2019-02-16T13:06:50.177Z,101764.02
2019-02-16T13:09:55.587Z,101766.69
2019-02-16T13:12:47.644Z,101764.48
2019-02-16T13:15:25.683Z,101769.92
2019-02-16T13:18:19.491Z,101771.53
2019-02-16T13:21:16.255Z,101764.64
2019-02-16T13:24:05.317Z,101759.46
2019-02-16T13:27:00.567Z,101754.41
2019-02-16T13:29:51.402Z,101717.55
2019-02-16T13:32:40.608Z,101762.50
2019-02-16T13:35:30.496Z,101759.98
2019-02-16T13:38:24.348Z,101756.91
2019-02-16T13:41:21.416Z,101753.61
2019-02-16T13:44:15.687Z,101752.23
2019-02-16T13:47:03.315Z,101749.44
2019-02-16T13:49:59.678Z,101739.59
2019-02-16T13:52:57.217Z,101745.97
2019-02-16T13:55:47.265Z,101746.73
2019-02-16T13:58:46.878Z,101741.58
2019-02-16T14:01:33.814Z,101734.70
2019-02-16T14:04:29.302Z,101736.44
2019-02-16T14:07:20.095Z,101734.48
2019-02-16T14:10:20.763Z,101727.67
2019-02-16T14:13:02.249Z,101727.48
2019-02-16T14:15:47.168Z,101731.33
2019-02-16T14:18:19.084Z,101725.09
2019-02-16T14:20:51.591Z,101723.93
2019-02-16T14:23:23.966Z,101727.88
2019-02-16T14:25:56.074Z,101724.61
2019-02-16T14:28:28.063Z,101727.78
2019-02-16T14:31:00.304Z,101733.22
2019-02-16T14:33:32.286Z,101728.23
2019-02-16T14:36:04.699Z,101729.25
2019-02-16T14:38:48.270Z,101721.95
2019-02-16T14:41:20.367Z,101719.04
2019-02-16T14:43:52.273Z,101710.89
2019-02-16T14:46:24.270Z,101718.31
2019-02-16T14:48:56.110Z,101716.61
2019-02-16T14:51:28.060Z,101717.52
2019-02-16T14:54:00.178Z,101714.63
2019-02-16T14:56:32.000Z,101719.14
2019-02-16T14:59:03.978Z,101714.02
2019-02-16T15:01:35.951Z,101712.78
2019-02-16T15:04:08.942Z,101710.23
2019-02-16T15:06:43.416Z,101700.88
2019-02-16T15:09:15.277Z,101695.77
2019-02-16T15:11:47.288Z,101696.17
2019-02-16T15:14:19.454Z,101690.11
2019-02-16T15:16:52.631Z,101688.66
2019-02-16T15:19:25.752Z,101678.41
2019-02-16T15:21:57.761Z,101682.01
2019-02-16T15:24:29.613Z,101677.50
2019-02-16T15:27:01.537Z,101652.11
2019-02-16T15:29:33.437Z,101676.28
2019-02-16T15:32:05.414Z,101677.08
2019-02-16T15:34:40.489Z,101680.77
2019-02-16T15:37:12.464Z,101688.42
2019-02-16T15:39:44.341Z,101681.81
2019-02-16T15:42:16.257Z,101687.72
2019-02-16T15:44:48.177Z,101693.47
2019-02-16T15:47:20.159Z,101690.91
2019-02-16T15:49:52.068Z,101683.77
2019-02-16T15:52:23.957Z,101685.98
2019-02-16T15:54:55.847Z,101680.39
2019-02-16T15:57:31.258Z,101680.15
2019-02-16T16:00:03.536Z,101671.33
2019-02-16T16:02:35.813Z,101671.04
2019-02-16T16:05:07.753Z,101669.41
2019-02-16T16:07:41.437Z,101667.39
2019-02-16T16:10:35.281Z,101664.70
2019-02-16T16:13:37.063Z,101663.69
2019-02-16T16:16:27.869Z,101664.64
2019-02-16T16:19:22.578Z,101665.97
2019-02-16T16:22:04.281Z,101673.55
2019-02-16T16:24:57.945Z,101669.30
2019-02-16T16:27:36.859Z,101668.69
2019-02-16T16:30:28.052Z,101663.74
2019-02-16T16:33:07.659Z,101664.32
2019-02-16T16:35:49.004Z,101662.67
2019-02-16T16:38:54.992Z,101667.97
2019-02-16T16:41:57.617Z,101664.03
2019-02-16T16:44:37.197Z,101670.71
2019-02-16T16:47:34.669Z,101672.05
2019-02-16T16:50:22.836Z,101674.74
2019-02-16T16:53:23.725Z,101674.70
2019-02-16T16:56:28.474Z,101669.86
2019-02-16T16:59:35.855Z,101669.84
2019-02-16T17:02:25.080Z,101672.97
2019-02-16T17:05:15.257Z,101668.14
2019-02-16T17:08:08.769Z,101669.02
2019-02-16T17:10:57.823Z,101668.54
2019-02-16T17:13:49.179Z,101674.25
2019-02-16T17:16:31.892Z,101676.91
2019-02-16T17:19:22.563Z,101670.70
2019-02-16T17:22:16.004Z,101669.80
2019-02-16T17:24:59.840Z,101671.98
2019-02-16T17:27:44.992Z,101679.00
2019-02-16T17:30:50.954Z,101673.69
2019-02-16T17:33:41.686Z,101671.88
2019-02-16T17:36:32.571Z,101673.69
2019-02-16T17:39:21.729Z,101673.61
2019-02-16T17:42:14.112Z,101675.46
2019-02-16T17:45:07.772Z,101676.30
2019-02-16T17:48:01.360Z,101668.28
2019-02-16T17:50:38.614Z,101669.55
2019-02-16T17:53:26.449Z,101668.17
2019-02-16T17:56:11.589Z,101668.59
2019-02-16T17:59:02.296Z,101661.08
2019-02-16T18:01:58.848Z,101662.74
2019-02-16T18:04:52.515Z,101669.23
2019-02-16T18:07:31.081Z,101668.77
2019-02-16T18:10:14.818Z,101666.55
2019-02-16T18:13:17.714Z,101663.87
2019-02-16T18:15:55.419Z,101662.12
2019-02-16T18:18:47.808Z,101658.61
2019-02-16T18:21:42.459Z,101656.41
2019-02-16T18:24:36.206Z,101661.23
2019-02-16T18:27:30.036Z,101663.00
2019-02-16T18:30:23.642Z,101666.89
2019-02-16T18:33:07.776Z,101666.44
2019-02-16T18:35:58.503Z,101666.88
2019-02-16T18:38:58.195Z,101666.02
2019-02-16T18:41:39.782Z,101670.39
2019-02-16T18:44:38.164Z,101669.60
2019-02-16T18:47:21.921Z,101662.84
2019-02-16T18:50:12.684Z,101668.02
2019-02-16T18:53:06.306Z,101663.14
2019-02-16T18:55:52.550Z,101673.15
2019-02-16T18:58:31.759Z,101674.73
2019-02-16T19:01:14.357Z,101676.46
2019-02-16T19:04:05.142Z,101667.60
2019-02-16T19:07:14.015Z,101670.28
2019-02-16T19:09:56.254Z,101673.91
2019-02-16T19:12:46.225Z,101675.98
2019-02-16T19:15:49.035Z,101681.07
2019-02-16T19:18:38.902Z,101679.27
2019-02-16T19:21:31.232Z,101681.77
2019-02-16T19:24:37.480Z,101678.69
2019-02-16T19:27:32.372Z,101673.01
2019-02-16T19:30:12.152Z,101672.09
2019-02-16T19:32:51.049Z,101669.24
2019-02-16T19:35:53.318Z,101673.51
2019-02-16T19:38:53.435Z,101668.15
2019-02-16T19:41:50.935Z,101671.11
2019-02-16T19:44:42.992Z,101663.94
2019-02-16T19:47:38.002Z,101659.41
2019-02-16T19:50:41.015Z,101661.95
2019-02-16T19:53:33.381Z,101667.16
2019-02-16T19:56:21.459Z,101668.36
2019-02-16T19:59:16.734Z,101669.21
2019-02-16T20:02:16.698Z,101673.07
2019-02-16T20:05:11.375Z,101666.84
2019-02-16T20:07:56.914Z,101661.19
2019-02-16T20:10:55.552Z,101661.99
2019-02-16T20:13:54.065Z,101666.64
2019-02-16T20:16:57.322Z,101670.55
2019-02-16T20:19:49.475Z,101671.31
2019-02-16T20:22:48.082Z,101672.89
2019-02-16T20:25:49.984Z,101672.59
2019-02-16T20:28:52.042Z,101679.03
2019-02-16T20:32:46.849Z,101675.70
2019-02-16T20:35:42.583Z,101682.09
2019-02-16T20:38:31.333Z,101675.75
2019-02-16T20:41:45.925Z,101685.47
2019-02-16T20:44:21.472Z,101690.83
2019-02-16T20:47:51.895Z,101689.66
2019-02-16T20:50:44.177Z,101687.66
2019-02-16T20:53:43.747Z,101690.02
2019-02-16T20:56:25.090Z,101686.94
2019-02-16T20:59:54.401Z,101686.55
2019-02-16T21:03:09.051Z,101687.54
2019-02-16T21:06:19.734Z,101690.16
2019-02-16T21:09:26.026Z,101690.91
2019-02-16T21:12:18.910Z,101699.19
2019-02-16T21:15:33.667Z,101700.59
2019-02-16T21:18:25.658Z,101702.38
2019-02-16T21:21:38.825Z,101700.23
2019-02-16T21:24:32.146Z,101699.41
2019-02-16T21:27:18.713Z,101703.95
2019-02-16T21:30:03.190Z,101705.05
2019-02-16T21:33:02.443Z,101701.67
2019-02-16T21:35:54.047Z,101700.06
2019-02-16T21:38:51.665Z,101701.28
2019-02-16T21:41:42.968Z,101702.28
2019-02-16T21:44:38.329Z,101707.45
2019-02-16T21:47:33.853Z,101706.95
2019-02-16T21:50:33.762Z,101705.39
2019-02-16T21:53:37.717Z,101702.16
2019-02-16T21:56:25.725Z,101701.30
2019-02-16T21:59:25.747Z,101703.58
2019-02-16T22:02:12.478Z,101700.11
2019-02-16T22:05:17.562Z,101712.57
2019-02-16T22:08:19.168Z,101704.66
2019-02-16T22:11:19.255Z,101705.00
2019-02-16T22:13:55.190Z,101704.22
2019-02-16T22:16:54.866Z,101705.58
2019-02-16T22:19:36.154Z,101705.00
2019-02-16T22:22:25.961Z,101703.16
2019-02-16T22:27:59.916Z,101701.17
2019-02-16T22:30:36.089Z,101704.43
2019-02-16T22:33:13.512Z,101708.17
2019-02-16T22:35:51.700Z,101708.29
2019-02-16T22:38:31.241Z,101710.02
2019-02-16T22:41:08.832Z,101713.64
2019-02-16T22:43:50.821Z,101710.06
2019-02-16T22:46:27.334Z,101701.50
2019-02-16T22:49:07.204Z,101711.91
2019-02-16T22:51:38.920Z,101709.52
2019-02-16T22:54:18.688Z,101708.59
2019-02-16T22:56:54.262Z,101703.16
2019-02-16T22:59:31.585Z,101706.96
2019-02-16T23:02:14.469Z,101697.20
2019-02-16T23:04:47.579Z,101707.56
2019-02-16T23:07:23.993Z,101711.53
2019-02-16T23:10:01.987Z,101708.57
2019-02-16T23:12:44.478Z,101709.50
2019-02-16T23:15:20.870Z,101712.46
2019-02-16T23:18:09.505Z,101712.28
2019-02-16T23:20:43.503Z,101711.44
2019-02-16T23:23:15.520Z,101717.44
2019-02-16T23:25:47.271Z,101712.92
2019-02-16T23:28:53.316Z,101716.30
2019-02-16T23:31:26.409Z,101718.08
2019-02-16T23:34:04.028Z,101715.41
2019-02-16T23:36:51.775Z,101712.56
2019-02-16T23:39:26.648Z,101716.11
2019-02-16T23:42:09.237Z,101717.61
2019-02-16T23:44:45.698Z,101712.16
2019-02-16T23:47:32.624Z,101716.39
2019-02-16T23:50:11.525Z,101710.19
2019-02-16T23:52:50.689Z,101707.81
2019-02-16T23:55:26.262Z,101705.53
2019-02-16T23:58:02.407Z,101707.05
